Airfield :







YOU CAN JOIN US ON...

 
LOGIN :

Register | Disclaimer

   EN    FR    IT 

 









Legend :    VFR   Marginal VFR   IFR   Intensive IFR   Very Intensive IFR
Visi :
Ceiling :
>= 8 km
>= 3000ft
5 to 8 km
1000 to 3000 ft
1500m to 5 km
500 to 1000 ft
800 to 1500m
200 to 500 ft
< 800m
< 200 ft
Symbols :   Thunderstorms  Fog  Heavy snow  Heavy precipitations  Wind > 20 kt







- Airport Elevation : 56 ft


KRKD - Knox County Regional

CURRENT METAR :
  • 252356Z AUTO 00000KT 10SM CLR 12/10 A3033 RMK AO2 SLP270 T01170100 10200 20117 55000

EXPIRED METARs :
  • 252256Z AUTO 10004KT 10SM CLR 15/11 A3032 RMK AO2 SLP267 T01500106
  • 252156Z AUTO 11007KT 10SM CLR 16/11 A3033 RMK AO2 SLP270 T01610111

TAF KRKD
Valid from the 26 at 00:00 until the 27 at 00:00 UTC


252320Z 2600/2624 09009KT P6SM FEW250
No reported NOTAMs for that airfield.



MET'MAP, your aeronautical weather chart ! - Copyright ORBIFLY December 2007 - Disclaimer

ORBIFLY MET'MAP TEAM :

Programming & Development : Alexandra Zaïnal
Concept & Development : Baudouin d'Aumeries
Co-Development & Prog : Marc-Olivier Méhu
Technical & hardware support : Manuel Goepfert

Contact : metmap@orbifly.com




SOURCES & CREDITS :

   NOAA